createdAt,value
2018-05-24T00:00:07.785Z,100483
2018-05-24T00:02:33.928Z,100488
2018-05-24T00:05:00.113Z,100489
2018-05-24T00:07:26.248Z,100492
2018-05-24T00:09:52.412Z,100492
2018-05-24T00:12:18.640Z,100493
2018-05-24T00:14:44.829Z,100490
2018-05-24T00:17:10.985Z,100493
2018-05-24T00:19:37.164Z,100495
2018-05-24T00:22:03.387Z,100494
2018-05-24T00:24:29.584Z,100498
2018-05-24T00:26:55.768Z,100500
2018-05-24T00:29:21.910Z,100501
2018-05-24T00:32:12.490Z,100505
2018-05-24T00:34:46.579Z,100504
2018-05-24T00:37:12.728Z,100505
2018-05-24T00:39:38.943Z,100502
2018-05-24T00:42:05.184Z,100507
2018-05-24T00:44:31.327Z,100506
2018-05-24T00:46:57.515Z,100499
2018-05-24T00:49:23.691Z,100504
2018-05-24T00:51:49.860Z,100504
2018-05-24T00:54:16.063Z,100497
2018-05-24T00:56:43.053Z,100499
2018-05-24T00:59:09.209Z,100495
2018-05-24T01:01:35.432Z,100494
2018-05-24T01:04:02.029Z,100490
2018-05-24T01:06:28.926Z,100489
2018-05-24T01:08:55.115Z,100489
2018-05-24T01:11:21.278Z,100489
2018-05-24T01:13:47.479Z,100494
2018-05-24T01:16:13.685Z,100494
2018-05-24T01:18:39.853Z,100493
2018-05-24T01:21:06.779Z,100493
2018-05-24T01:23:33.028Z,100495
2018-05-24T01:25:59.193Z,100496
2018-05-24T01:28:26.144Z,100495
2018-05-24T01:30:52.340Z,100494
2018-05-24T01:33:18.505Z,100497
2018-05-24T01:35:45.399Z,100491
2018-05-24T01:38:11.548Z,100496
2018-05-24T01:40:37.717Z,100491
2018-05-24T01:43:04.609Z,100495
2018-05-24T01:45:30.801Z,100498
2018-05-24T01:47:57.705Z,100491
2018-05-24T01:50:23.889Z,100492
2018-05-24T01:52:50.845Z,100487
2018-05-24T01:55:17.025Z,100491
2018-05-24T01:57:43.192Z,100490
2018-05-24T02:00:10.122Z,100493
2018-05-24T02:02:37.644Z,100489
2018-05-24T02:05:04.381Z,100492
2018-05-24T02:07:30.566Z,100494
2018-05-24T02:09:56.725Z,100497
2018-05-24T02:12:23.624Z,100498
2018-05-24T02:14:49.813Z,100502
2018-05-24T02:17:16.001Z,100498
2018-05-24T02:19:42.237Z,100507
2018-05-24T02:22:08.459Z,100506
2018-05-24T02:24:34.624Z,100503
2018-05-24T02:27:00.821Z,100506
2018-05-24T02:29:27.002Z,100508
2018-05-24T02:31:54.653Z,100501
2018-05-24T02:34:20.897Z,100505
2018-05-24T02:36:47.053Z,100508
2018-05-24T02:39:13.237Z,100508
2018-05-24T02:41:39.472Z,100506
2018-05-24T02:44:05.650Z,100501
2018-05-24T02:46:33.097Z,100504
2018-05-24T02:49:00.041Z,100505
2018-05-24T02:51:26.213Z,100503
2018-05-24T02:53:52.369Z,100507
2018-05-24T02:56:18.644Z,100509
2018-05-24T02:58:46.233Z,100498
2018-05-24T03:01:13.151Z,100496
2018-05-24T03:03:39.345Z,100496
2018-05-24T03:06:05.534Z,100498
2018-05-24T03:08:31.761Z,100497
2018-05-24T03:10:57.902Z,100496
2018-05-24T03:13:24.819Z,100494
2018-05-24T03:15:51.031Z,100491
2018-05-24T03:18:17.231Z,100496
2018-05-24T03:20:44.128Z,100497
2018-05-24T03:23:11.099Z,100497
2018-05-24T03:25:37.254Z,100496
2018-05-24T03:28:03.449Z,100496
2018-05-24T03:30:31.079Z,100494
2018-05-24T03:32:57.277Z,100493
2018-05-24T03:35:23.455Z,100500
2018-05-24T03:37:49.643Z,100506
2018-05-24T03:40:15.798Z,100507
2018-05-24T03:42:42.790Z,100503
2018-05-24T03:45:09.761Z,100507
2018-05-24T03:47:35.933Z,100505
2018-05-24T03:50:02.832Z,100507
2018-05-24T03:52:29.006Z,100507
2018-05-24T03:54:56.032Z,100504
2018-05-24T03:57:22.236Z,100510
2018-05-24T04:00:15.713Z,100513
2018-05-24T04:03:00.692Z,100512
2018-05-24T04:05:26.870Z,100516
2018-05-24T04:07:53.035Z,100515
2018-05-24T04:10:19.273Z,100510
2018-05-24T04:12:45.454Z,100509
2018-05-24T04:15:12.361Z,100511
2018-05-24T04:17:38.545Z,100516
2018-05-24T04:20:06.194Z,100513
2018-05-24T04:22:32.383Z,100513
2018-05-24T04:24:58.633Z,100512
2018-05-24T04:27:24.831Z,100514
2018-05-24T04:29:51.069Z,100521
2018-05-24T04:32:17.234Z,100517
2018-05-24T04:34:43.480Z,100523
2018-05-24T04:37:09.650Z,100520
2018-05-24T04:39:36.604Z,100517
2018-05-24T04:42:02.785Z,100524
2018-05-24T04:44:28.975Z,100522
2018-05-24T04:46:57.068Z,100525
2018-05-24T04:49:23.257Z,100527
2018-05-24T04:51:49.447Z,100531
2018-05-24T04:54:15.621Z,100531
2018-05-24T04:56:42.571Z,100524
2018-05-24T04:59:08.785Z,100528
2018-05-24T05:01:34.963Z,100521
2018-05-24T05:04:01.120Z,100519
2018-05-24T05:06:27.381Z,100519
2018-05-24T05:08:53.558Z,100523
2018-05-24T05:11:19.725Z,100519
2018-05-24T05:13:46.977Z,100519
2018-05-24T05:16:13.161Z,100524
2018-05-24T05:18:39.340Z,100518
2018-05-24T05:21:05.979Z,100522
2018-05-24T05:23:32.152Z,100524
2018-05-24T05:25:58.325Z,100522
2018-05-24T05:28:24.524Z,100518
2018-05-24T05:30:50.677Z,100520
2018-05-24T05:33:16.837Z,100524
2018-05-24T05:35:43.770Z,100523
2018-05-24T05:38:10.045Z,100520
2018-05-24T05:40:36.170Z,100519
2018-05-24T05:43:02.414Z,100524
2018-05-24T05:45:28.581Z,100525
2018-05-24T05:47:54.757Z,100523
2018-05-24T05:50:21.647Z,100518
2018-05-24T05:52:47.854Z,100512
2018-05-24T05:55:14.083Z,100512
2018-05-24T05:57:41.033Z,100513
2018-05-24T06:00:07.256Z,100509
2018-05-24T06:02:33.444Z,100516
2018-05-24T06:04:59.601Z,100518
2018-05-24T06:07:27.245Z,100520
2018-05-24T06:09:53.438Z,100516
2018-05-24T06:12:19.601Z,100513
2018-05-24T06:14:45.769Z,100517
2018-05-24T06:17:11.969Z,100519
2018-05-24T06:19:38.188Z,100519
2018-05-24T06:22:04.861Z,100522
2018-05-24T06:24:31.069Z,100524
2018-05-24T06:26:57.280Z,100522
2018-05-24T06:29:23.469Z,100520
2018-05-24T06:31:49.641Z,100521
2018-05-24T06:34:16.542Z,100522
2018-05-24T06:36:42.725Z,100524
2018-05-24T06:39:09.755Z,100521
2018-05-24T06:41:35.921Z,100524
2018-05-24T06:44:02.130Z,100528
2018-05-24T06:46:28.372Z,100530
2018-05-24T06:48:54.499Z,100526
2018-05-24T06:51:21.429Z,100526
2018-05-24T06:53:47.624Z,100527
2018-05-24T06:56:13.789Z,100531
2018-05-24T06:58:39.985Z,100537
2018-05-24T07:01:09.361Z,100536
2018-05-24T07:03:36.261Z,100529
2018-05-24T07:06:02.528Z,100534
2018-05-24T07:08:28.668Z,100535
2018-05-24T07:10:54.845Z,100533
2018-05-24T07:13:21.121Z,100532
2018-05-24T07:15:47.273Z,100534
2018-05-24T07:18:14.180Z,100528
2018-05-24T07:20:40.394Z,100527
2018-05-24T07:23:07.421Z,100522
2018-05-24T07:25:33.595Z,100522
2018-05-24T07:27:59.855Z,100518
2018-05-24T07:30:26.043Z,100517
2018-05-24T07:32:52.193Z,100517
2018-05-24T07:35:18.394Z,100521
2018-05-24T07:37:44.555Z,100521
2018-05-24T07:40:10.717Z,100513
2018-05-24T07:42:36.905Z,100517
2018-05-24T07:45:03.140Z,100508
2018-05-24T07:47:29.302Z,100501
2018-05-24T07:49:55.497Z,100503
2018-05-24T07:52:22.432Z,100507
2018-05-24T07:54:49.521Z,100505
2018-05-24T07:57:15.636Z,100502
2018-05-24T07:59:41.842Z,100499
2018-05-24T08:02:08.000Z,100493
2018-05-24T08:04:34.181Z,100491
2018-05-24T08:07:00.369Z,100493
2018-05-24T08:09:27.265Z,100490
2018-05-24T08:11:53.475Z,100491
2018-05-24T08:14:19.649Z,100490
2018-05-24T08:16:45.841Z,100491
2018-05-24T08:19:11.994Z,100484
2018-05-24T08:21:38.172Z,100487
2018-05-24T08:24:05.921Z,100479
2018-05-24T08:26:32.137Z,100478
2018-05-24T08:29:05.249Z,100473
2018-05-24T08:31:32.243Z,100477
2018-05-24T08:33:58.425Z,100474
2018-05-24T08:36:24.582Z,100482
2018-05-24T08:38:50.733Z,100488
2018-05-24T08:41:23.997Z,100481
2018-05-24T08:43:50.201Z,100480
2018-05-24T08:46:16.413Z,100486
2018-05-24T08:48:42.593Z,100482
2018-05-24T08:51:08.757Z,100482
2018-05-24T08:53:35.680Z,100482
2018-05-24T08:56:01.842Z,100483
2018-05-24T08:58:28.731Z,100482
2018-05-24T09:00:54.909Z,100480
2018-05-24T09:03:21.820Z,100480
2018-05-24T09:05:47.991Z,100482
2018-05-24T09:08:14.144Z,100482
2018-05-24T09:10:40.305Z,100479
2018-05-24T09:13:06.490Z,100479
2018-05-24T09:15:32.691Z,100479
2018-05-24T09:17:58.873Z,100478
2018-05-24T09:20:25.041Z,100478
2018-05-24T09:22:51.196Z,100473
2018-05-24T09:25:17.770Z,100469
2018-05-24T09:27:51.697Z,100473
2018-05-24T09:30:17.897Z,100467
2018-05-24T09:32:44.081Z,100467
2018-05-24T09:35:10.269Z,100465
2018-05-24T09:37:37.034Z,100461
2018-05-24T09:40:03.913Z,100466
2018-05-24T09:42:30.073Z,100458
2018-05-24T09:44:56.239Z,100463
2018-05-24T09:47:23.132Z,100454
2018-05-24T09:49:49.357Z,100452
2018-05-24T09:52:15.526Z,100447
2018-05-24T09:54:41.687Z,100456
2018-05-24T09:57:08.372Z,100451
2018-05-24T09:59:35.129Z,100446
2018-05-24T10:02:01.276Z,100443
2018-05-24T10:04:27.426Z,100434
2018-05-24T10:06:53.603Z,100442
2018-05-24T10:09:19.773Z,100433
2018-05-24T10:11:45.921Z,100434
2018-05-24T10:14:12.096Z,100435
2018-05-24T10:16:38.253Z,100435
2018-05-24T10:19:04.434Z,100430
2018-05-24T10:21:31.372Z,100423
2018-05-24T10:23:57.673Z,100424
2018-05-24T10:26:23.885Z,100414
2018-05-24T10:28:50.109Z,100407
2018-05-24T10:31:17.005Z,100417
2018-05-24T10:33:43.176Z,100422
2018-05-24T10:36:10.835Z,100417
2018-05-24T10:38:37.035Z,100418
2018-05-24T10:41:03.205Z,100413
2018-05-24T10:43:29.396Z,100418
2018-05-24T10:45:55.546Z,100418
2018-05-24T10:48:21.717Z,100417
2018-05-24T10:50:47.925Z,100413
2018-05-24T10:53:14.085Z,100413
2018-05-24T10:55:40.273Z,100409
2018-05-24T10:58:06.613Z,100402
2018-05-24T11:00:32.799Z,100405
2018-05-24T11:02:59.739Z,100409
2018-05-24T11:05:25.861Z,100405
2018-05-24T11:07:52.033Z,100411
2018-05-24T11:10:18.202Z,100409
2018-05-24T11:12:44.395Z,100408
2018-05-24T11:15:10.557Z,100408
2018-05-24T11:17:36.717Z,100401
2018-05-24T11:20:02.926Z,100395
2018-05-24T11:22:29.097Z,100392
2018-05-24T11:24:56.037Z,100397
2018-05-24T11:27:22.957Z,100399
2018-05-24T11:29:49.477Z,100390
2018-05-24T11:32:15.693Z,100389
2018-05-24T11:34:41.889Z,100385
2018-05-24T11:37:08.152Z,100389
2018-05-24T11:39:34.966Z,100380
2018-05-24T11:42:01.807Z,100381
2018-05-24T11:44:28.017Z,100372
2018-05-24T11:46:54.237Z,100376
2018-05-24T11:49:20.433Z,100376
2018-05-24T11:51:46.593Z,100373
2018-05-24T11:54:13.514Z,100370
2018-05-24T11:56:39.724Z,100372
2018-05-24T11:59:05.877Z,100369
2018-05-24T12:01:33.593Z,100364
2018-05-24T12:03:59.785Z,100363
2018-05-24T12:06:26.714Z,100358
2018-05-24T12:08:52.885Z,100349
2018-05-24T12:11:19.768Z,100357
2018-05-24T12:13:45.933Z,100341
2018-05-24T12:16:12.085Z,100345
2018-05-24T12:18:38.269Z,100332
2018-05-24T12:21:04.433Z,100332
2018-05-24T12:23:30.613Z,100329
2018-05-24T12:25:57.505Z,100322
2018-05-24T12:28:23.703Z,100321
2018-05-24T12:30:52.589Z,100328
2018-05-24T12:33:18.732Z,100333
2018-05-24T12:35:44.905Z,100336
2018-05-24T12:38:11.025Z,100336
2018-05-24T12:40:37.216Z,100336
2018-05-24T12:43:04.129Z,100342
2018-05-24T12:45:30.297Z,100334
2018-05-24T12:47:57.229Z,100333
2018-05-24T12:50:23.397Z,100333
2018-05-24T12:52:50.284Z,100332
2018-05-24T12:55:16.465Z,100324
2018-05-24T12:57:43.395Z,100320
2018-05-24T13:00:09.659Z,100320
2018-05-24T13:02:36.193Z,100317
2018-05-24T13:05:03.093Z,100317
2018-05-24T13:07:29.393Z,100316
2018-05-24T13:09:55.640Z,100309
2018-05-24T13:12:21.747Z,100307
2018-05-24T13:14:49.657Z,100317
2018-05-24T13:17:15.829Z,100305
2018-05-24T13:19:41.973Z,100297
2018-05-24T13:22:08.163Z,100301
2018-05-24T13:24:34.419Z,100304
2018-05-24T13:27:00.517Z,100306
2018-05-24T13:29:26.730Z,100287
2018-05-24T13:31:52.871Z,100305
2018-05-24T13:34:19.757Z,100301
2018-05-24T13:36:45.933Z,100300
2018-05-24T13:39:12.067Z,100290
2018-05-24T13:41:38.197Z,100302
2018-05-24T13:44:05.105Z,100298
2018-05-24T13:46:31.227Z,100284
2018-05-24T13:48:57.349Z,100291
2018-05-24T13:51:24.293Z,100285
2018-05-24T13:53:54.105Z,100288
2018-05-24T13:56:21.049Z,100278
2018-05-24T13:58:47.201Z,100281
2018-05-24T14:01:14.108Z,100277
2018-05-24T14:03:40.501Z,100275
2018-05-24T14:06:06.674Z,100279
2018-05-24T14:08:32.850Z,100280
2018-05-24T14:10:59.808Z,100278
2018-05-24T14:13:26.001Z,100286
2018-05-24T14:15:52.904Z,100285
2018-05-24T14:18:19.029Z,100293
2018-05-24T14:20:45.154Z,100293
2018-05-24T14:23:11.865Z,100293
2018-05-24T14:25:38.771Z,100290
2018-05-24T14:28:04.893Z,100301
2018-05-24T14:30:31.769Z,100306
2018-05-24T14:32:57.970Z,100304
2018-05-24T14:35:24.105Z,100305
2018-05-24T14:37:50.282Z,100312
2018-05-24T14:40:16.405Z,100316
2018-05-24T14:42:42.561Z,100308
2018-05-24T14:45:08.714Z,100309
2018-05-24T14:47:35.621Z,100306
2018-05-24T14:50:01.823Z,100305
2018-05-24T14:52:28.023Z,100307
2018-05-24T14:54:54.166Z,100307
2018-05-24T14:57:20.353Z,100303
2018-05-24T14:59:46.574Z,100298
2018-05-24T15:02:12.761Z,100298
2018-05-24T15:04:39.100Z,100294
2018-05-24T15:07:06.025Z,100297
2018-05-24T15:09:33.097Z,100292
2018-05-24T15:12:00.028Z,100282
2018-05-24T15:14:27.662Z,100282
2018-05-24T15:16:53.784Z,100272
2018-05-24T15:19:19.974Z,100276
2018-05-24T15:21:46.153Z,100275
2018-05-24T15:24:12.372Z,100273
2018-05-24T15:26:38.621Z,100276
2018-05-24T15:29:04.825Z,100274
2018-05-24T15:31:31.724Z,100280
2018-05-24T15:33:57.864Z,100283
2018-05-24T15:36:23.993Z,100278
2018-05-24T15:38:50.169Z,100281
2018-05-24T15:41:17.297Z,100282
2018-05-24T15:43:44.236Z,100277
2018-05-24T15:46:10.405Z,100285
2018-05-24T15:48:36.565Z,100284
2018-05-24T15:51:09.738Z,100288
2018-05-24T15:53:36.625Z,100282
2018-05-24T15:56:02.772Z,100286
2018-05-24T15:58:30.723Z,100280
2018-05-24T16:00:57.005Z,100296
2018-05-24T16:03:23.986Z,100281
2018-05-24T16:05:51.281Z,100278
2018-05-24T16:08:17.441Z,100290
2018-05-24T16:10:43.602Z,100282
2018-05-24T16:13:10.548Z,100282
2018-05-24T16:15:36.735Z,100280
2018-05-24T16:18:02.919Z,100289
2018-05-24T16:20:29.045Z,100285
2018-05-24T16:22:55.153Z,100291
2018-05-24T16:25:22.161Z,100291
2018-05-24T16:27:48.524Z,100293
2018-05-24T16:30:14.630Z,100294
2018-05-24T16:32:40.781Z,100291
2018-05-24T16:35:06.907Z,100288
2018-05-24T16:37:33.886Z,100297
2018-05-24T16:40:00.013Z,100294
2018-05-24T16:42:26.240Z,100291
2018-05-24T16:44:52.437Z,100294
2018-05-24T16:47:18.609Z,100296
2018-05-24T16:49:44.744Z,100291
2018-05-24T16:52:10.874Z,100293
2018-05-24T16:54:37.009Z,100297
2018-05-24T16:57:03.918Z,100303
2018-05-24T16:59:30.167Z,100300
2018-05-24T17:01:56.334Z,100302
2018-05-24T17:04:22.505Z,100303
2018-05-24T17:06:49.373Z,100308
2018-05-24T17:09:15.543Z,100303
2018-05-24T17:11:42.542Z,100303
2018-05-24T17:14:10.689Z,100297
2018-05-24T17:16:36.836Z,100302
2018-05-24T17:19:03.040Z,100295
2018-05-24T17:21:29.211Z,100296
2018-05-24T17:23:55.453Z,100301
2018-05-24T17:26:22.523Z,100298
2018-05-24T17:28:48.673Z,100299
2018-05-24T17:31:14.865Z,100298
2018-05-24T17:33:41.002Z,100300
2018-05-24T17:36:07.878Z,100303
2018-05-24T17:38:34.029Z,100306
2018-05-24T17:41:00.372Z,100301
2018-05-24T17:43:26.562Z,100294
2018-05-24T17:45:53.533Z,100298
2018-05-24T17:48:21.273Z,100300
2018-05-24T17:50:47.452Z,100300
2018-05-24T17:53:13.576Z,100301
2018-05-24T17:55:39.704Z,100305
2018-05-24T17:58:05.895Z,100301
2018-05-24T18:00:32.137Z,100302
2018-05-24T18:02:58.668Z,100299
2018-05-24T18:05:24.880Z,100300
2018-05-24T18:07:51.209Z,100301
2018-05-24T18:10:18.127Z,100300
2018-05-24T18:12:44.281Z,100300
2018-05-24T18:15:10.440Z,100310
2018-05-24T18:17:36.754Z,100308
2018-05-24T18:20:02.919Z,100307
2018-05-24T18:22:29.133Z,100304
2018-05-24T18:24:55.352Z,100306
2018-05-24T18:27:21.607Z,100300
2018-05-24T18:29:47.905Z,100306
2018-05-24T18:32:14.123Z,100307
2018-05-24T18:34:41.057Z,100316
2018-05-24T18:37:08.042Z,100311
2018-05-24T18:39:35.021Z,100316
2018-05-24T18:42:01.163Z,100311
2018-05-24T18:44:27.332Z,100312
2018-05-24T18:46:54.194Z,100317
2018-05-24T18:49:21.075Z,100314
2018-05-24T18:51:47.277Z,100315
2018-05-24T18:54:13.455Z,100309
2018-05-24T18:56:39.591Z,100315
2018-05-24T18:59:05.817Z,100318
2018-05-24T19:01:31.957Z,100323
2018-05-24T19:03:58.210Z,100323
2018-05-24T19:06:24.403Z,100327
2018-05-24T19:08:50.557Z,100325
2018-05-24T19:11:17.007Z,100329
2018-05-24T19:13:43.214Z,100330
2018-05-24T19:16:09.369Z,100331
2018-05-24T19:18:35.532Z,100335
2018-05-24T19:21:01.710Z,100339
2018-05-24T19:23:27.915Z,100337
2018-05-24T19:25:54.814Z,100339
2018-05-24T19:28:20.962Z,100342
2018-05-24T19:30:47.333Z,100349
2018-05-24T19:33:13.537Z,100343
2018-05-24T19:35:39.723Z,100350
2018-05-24T19:38:06.625Z,100343
2018-05-24T19:40:32.821Z,100345
2018-05-24T19:42:58.960Z,100348
2018-05-24T19:45:25.173Z,100354
2018-05-24T19:47:51.419Z,100352
2018-05-24T19:50:17.664Z,100357
2018-05-24T19:52:43.861Z,100359
2018-05-24T19:55:10.796Z,100356
2018-05-24T19:57:37.705Z,100354
2018-05-24T20:00:03.909Z,100357
2018-05-24T20:02:30.038Z,100368
2018-05-24T20:04:56.377Z,100363
2018-05-24T20:07:22.541Z,100359
2018-05-24T20:09:48.687Z,100361
2018-05-24T20:12:15.601Z,100358
2018-05-24T20:14:41.783Z,100361
2018-05-24T20:17:07.934Z,100358
2018-05-24T20:19:34.813Z,100362
2018-05-24T20:22:00.937Z,100354
2018-05-24T20:24:27.065Z,100358
2018-05-24T20:26:53.249Z,100360
2018-05-24T20:29:19.432Z,100358
2018-05-24T20:31:45.639Z,100355
2018-05-24T20:34:12.550Z,100356
2018-05-24T20:36:39.584Z,100359
2018-05-24T20:39:05.729Z,100362
2018-05-24T20:41:31.913Z,100356
2018-05-24T20:43:58.807Z,100357
2018-05-24T20:46:25.726Z,100357
2018-05-24T20:48:52.676Z,100355
2018-05-24T20:51:19.549Z,100351
2018-05-24T20:53:45.701Z,100352
2018-05-24T20:56:11.874Z,100352
2018-05-24T20:58:38.068Z,100352
2018-05-24T21:01:04.243Z,100358
2018-05-24T21:03:31.139Z,100364
2018-05-24T21:05:57.288Z,100367
2018-05-24T21:08:23.437Z,100366
2018-05-24T21:10:49.985Z,100373
2018-05-24T21:13:16.128Z,100374
2018-05-24T21:15:43.061Z,100381
2018-05-24T21:18:09.262Z,100378
2018-05-24T21:20:35.424Z,100380
2018-05-24T21:23:01.649Z,100381
2018-05-24T21:25:27.793Z,100383
2018-05-24T21:27:53.942Z,100382
2018-05-24T21:30:20.161Z,100388
2018-05-24T21:32:46.301Z,100388
2018-05-24T21:35:12.473Z,100386
2018-05-24T21:37:38.645Z,100386
2018-05-24T21:40:04.797Z,100383
2018-05-24T21:42:30.957Z,100385
2018-05-24T21:44:57.884Z,100379
2018-05-24T21:47:24.833Z,100381
2018-05-24T21:49:51.301Z,100390
2018-05-24T21:52:18.712Z,100393
2018-05-24T21:54:44.857Z,100395
2018-05-24T21:57:11.001Z,100394
2018-05-24T21:59:37.204Z,100393
2018-05-24T22:02:03.386Z,100399
2018-05-24T22:04:30.357Z,100393
2018-05-24T22:06:58.061Z,100394
2018-05-24T22:09:24.256Z,100391
2018-05-24T22:11:50.440Z,100395
2018-05-24T22:14:16.585Z,100399
2018-05-24T22:16:42.722Z,100395
2018-05-24T22:19:08.920Z,100392
2018-05-24T22:21:35.606Z,100388
2018-05-24T22:24:01.777Z,100394
2018-05-24T22:26:27.979Z,100389
2018-05-24T22:28:54.168Z,100385
2018-05-24T22:31:20.312Z,100393
2018-05-24T22:33:46.562Z,100388
2018-05-24T22:36:13.508Z,100385
2018-05-24T22:38:39.877Z,100384
2018-05-24T22:41:06.047Z,100386
2018-05-24T22:43:32.201Z,100388
2018-05-24T22:45:58.397Z,100386
2018-05-24T22:48:24.589Z,100385
2018-05-24T22:50:50.757Z,100387
2018-05-24T22:53:16.939Z,100394
2018-05-24T22:55:43.097Z,100395
2018-05-24T22:58:10.553Z,100389
2018-05-24T23:00:38.898Z,100385
2018-05-24T23:03:05.122Z,100389
2018-05-24T23:05:31.309Z,100393
2018-05-24T23:07:59.223Z,100397
2018-05-24T23:10:25.430Z,100401
2018-05-24T23:12:51.677Z,100398
2018-05-24T23:15:17.907Z,100401
2018-05-24T23:17:44.069Z,100402
2018-05-24T23:20:10.269Z,100400
2018-05-24T23:22:38.249Z,100399
2018-05-24T23:25:04.397Z,100397
2018-05-24T23:27:30.562Z,100397
2018-05-24T23:29:58.209Z,100396
2018-05-24T23:32:24.424Z,100396
2018-05-24T23:34:50.598Z,100396
2018-05-24T23:37:16.798Z,100399
2018-05-24T23:39:43.971Z,100397
2018-05-24T23:42:10.173Z,100395
2018-05-24T23:44:36.357Z,100396
2018-05-24T23:47:02.550Z,100392
2018-05-24T23:49:28.717Z,100392
2018-05-24T23:51:54.922Z,100389
2018-05-24T23:54:21.118Z,100387
2018-05-24T23:56:47.312Z,100386
2018-05-24T23:59:13.690Z,100381
